Time;durP1;ratioP1;P1;durP2;ratioP2;P2;SDS_P1;SDS_P2;PMS_P1;PMS_P2;Temp;Humidity;BMP_temperature;BMP_pressure;BME280_temperature;BME280_humidity;BME280_pressure;Samples;Min_cycle;Max_cycle;Signal;HPM_P1;HPM_P2
2023/01/13 00:00:34;;;;;;;1.30;0.90;;;3.40;99.90;;;;;;4955982;28;20109;-66
2023/01/13 00:03:02;;;;;;;2.67;0.70;;;3.30;99.90;;;;;;4956730;28;20151;-65
2023/01/13 00:05:29;;;;;;;3.63;0.80;;;3.20;99.90;;;;;;4960011;28;20639;-64
2023/01/13 00:07:56;;;;;;;2.22;0.50;;;3.10;99.90;;;;;;4953190;28;20114;-66
2023/01/13 00:10:23;;;;;;;1.58;0.80;;;3.10;99.90;;;;;;4954178;28;20082;-63
2023/01/13 00:12:50;;;;;;;1.55;0.60;;;3.00;99.90;;;;;;4956965;28;20074;-63
2023/01/13 00:15:17;;;;;;;2.33;0.85;;;3.00;99.90;;;;;;4955997;28;20043;-64
2023/01/13 00:17:44;;;;;;;1.02;0.65;;;2.90;99.90;;;;;;4956886;28;20162;-64
2023/01/13 00:20:11;;;;;;;2.17;0.80;;;2.80;99.90;;;;;;4956832;28;20054;-65
2023/01/13 00:22:38;;;;;;;3.00;1.30;;;2.70;99.90;;;;;;4951108;28;20039;-69
2023/01/13 00:25:05;;;;;;;1.13;1.00;;;2.70;99.90;;;;;;4958161;28;20133;-64
2023/01/13 00:27:33;;;;;;;3.03;1.50;;;2.60;99.90;;;;;;4956665;28;20541;-65
2023/01/13 00:30:00;;;;;;;2.38;1.30;;;2.60;99.90;;;;;;4952251;28;20058;-67
2023/01/13 00:32:27;;;;;;;2.72;1.50;;;2.60;99.90;;;;;;4959476;28;20051;-63
2023/01/13 00:34:54;;;;;;;2.47;1.45;;;2.50;99.90;;;;;;4960981;28;20117;-64
2023/01/13 00:37:22;;;;;;;5.22;2.28;;;2.40;99.90;;;;;;4958851;28;20055;-69
2023/01/13 00:39:50;;;;;;;2.20;2.00;;;2.40;99.90;;;;;;4958873;28;20819;-64
2023/01/13 00:45:04;;;;;;;2.72;1.40;;;2.30;99.90;;;;;;4951054;28;20059;-64
2023/01/13 00:47:31;;;;;;;3.13;1.73;;;2.30;99.90;;;;;;4960487;28;20126;-64
2023/01/13 00:49:58;;;;;;;2.42;1.90;;;2.20;99.90;;;;;;4953402;28;20058;-70
2023/01/13 00:52:25;;;;;;;2.65;1.55;;;2.20;99.90;;;;;;4959971;28;20114;-63
2023/01/13 00:54:52;;;;;;;2.28;1.80;;;2.10;99.90;;;;;;4956261;28;20501;-64
2023/01/13 00:57:19;;;;;;;3.17;1.95;;;2.10;99.90;;;;;;4955589;28;20063;-66
2023/01/13 00:59:47;;;;;;;4.35;1.73;;;2.10;99.90;;;;;;4953524;28;20121;-68
2023/01/13 01:02:15;;;;;;;3.20;2.30;;;2.00;99.90;;;;;;4959743;28;20068;-65
2023/01/13 01:04:42;;;;;;;6.95;2.88;;;2.00;99.90;;;;;;4961991;28;20046;-64
2023/01/13 01:07:09;;;;;;;4.35;3.80;;;2.00;99.90;;;;;;4956616;28;20047;-66
2023/01/13 01:09:38;;;;;;;5.60;2.50;;;2.00;99.90;;;;;;4961884;28;20095;-63
2023/01/13 01:12:05;;;;;;;4.45;2.80;;;1.90;99.90;;;;;;4945742;28;20818;-65
2023/01/13 01:14:32;;;;;;;4.28;2.92;;;1.90;99.90;;;;;;4952230;28;20362;-66
2023/01/13 01:16:59;;;;;;;7.63;3.65;;;1.90;99.90;;;;;;4960486;28;20105;-66
2023/01/13 01:19:26;;;;;;;7.03;3.15;;;1.90;99.90;;;;;;4949867;28;20051;-64
2023/01/13 01:21:53;;;;;;;6.22;3.25;;;1.90;99.90;;;;;;4965773;28;20514;-64
2023/01/13 01:24:20;;;;;;;5.68;3.47;;;1.90;99.90;;;;;;4956704;28;20039;-64
2023/01/13 01:26:47;;;;;;;5.10;3.47;;;1.90;99.90;;;;;;4953253;28;20051;-66
2023/01/13 01:29:14;;;;;;;5.35;3.47;;;1.90;99.90;;;;;;4954154;28;20117;-64
2023/01/13 01:31:42;;;;;;;5.88;3.50;;;1.90;99.90;;;;;;4962226;28;20044;-65
2023/01/13 01:34:09;;;;;;;8.13;3.88;;;1.90;99.90;;;;;;4952123;28;20054;-67
2023/01/13 01:36:37;;;;;;;7.47;4.18;;;1.90;99.90;;;;;;4959028;28;20047;-67
2023/01/13 01:39:05;;;;;;;9.98;3.80;;;1.90;99.90;;;;;;4955641;28;20098;-64
2023/01/13 01:41:34;;;;;;;8.35;4.22;;;1.80;99.90;;;;;;4952979;28;20055;-64
2023/01/13 01:44:25;;;;;;;6.57;3.92;;;1.80;99.90;;;;;;4953163;28;20524;-67
2023/01/13 01:46:51;;;;;;;;;;;1.80;99.90;;;;;;4971739;28;20461;-63
2023/01/13 01:49:24;;;;;;;6.00;3.95;;;1.80;99.90;;;;;;4949888;28;19922;-63
2023/01/13 01:52:15;;;;;;;13.52;4.53;;;1.90;99.90;;;;;;4956668;28;20054;-68
2023/01/13 01:55:08;;;;;;;7.10;3.78;;;1.80;99.90;;;;;;4944055;28;20113;-65
2023/01/13 01:57:53;;;;;;;4.65;3.03;;;1.90;99.90;;;;;;4940235;28;20863;-64
2023/01/13 02:00:21;;;;;;;7.05;3.42;;;1.80;99.90;;;;;;4945922;28;20201;-66
2023/01/13 02:02:50;;;;;;;8.88;4.38;;;1.80;99.90;;;;;;4955538;28;20062;-65
2023/01/13 02:05:18;;;;;;;8.38;4.15;;;1.90;99.90;;;;;;4957225;28;20052;-65
2023/01/13 02:07:47;;;;;;;10.07;2.85;;;1.90;99.90;;;;;;4955015;28;20156;-68
2023/01/13 02:10:18;;;;;;;12.10;2.75;;;2.00;99.90;;;;;;4952699;28;20050;-64
2023/01/13 02:12:47;;;;;;;12.63;2.47;;;2.10;99.90;;;;;;4953240;28;20568;-64
2023/01/13 02:15:21;;;;;;;6.03;2.13;;;2.10;99.90;;;;;;4953694;28;20441;-65
2023/01/13 02:18:06;;;;;;;5.00;1.55;;;2.10;99.90;;;;;;4949014;28;20153;-66
2023/01/13 02:20:41;;;;;;;3.22;1.35;;;2.20;99.90;;;;;;4950864;28;20768;-64
2023/01/13 02:26:37;;;;;;;;;;;2.20;99.90;;;;;;4955118;28;20055;-66
2023/01/13 02:32:19;;;;;;;7.68;1.83;;;2.20;99.90;;;;;;4955003;28;20047;-64
2023/01/13 02:35:02;;;;;;;5.75;1.73;;;2.20;99.90;;;;;;4952268;28;20066;-65
2023/01/13 02:37:33;;;;;;;3.90;1.77;;;2.20;99.90;;;;;;4958409;28;20167;-67
2023/01/13 02:40:07;;;;;;;4.63;3.15;;;2.20;99.90;;;;;;4947002;28;20058;-66
2023/01/13 02:45:46;;;;;;;4.88;2.20;;;2.20;99.90;;;;;;4953325;28;20074;-66
2023/01/13 02:48:15;;;;;;;4.53;1.75;;;2.20;99.90;;;;;;4954046;28;20046;-64
2023/01/13 02:50:57;;;;;;;5.38;2.67;;;2.20;99.90;;;;;;4952338;28;20079;-67
2023/01/13 02:53:39;;;;;;;2.15;1.48;;;2.20;99.90;;;;;;4956956;28;20066;-63
2023/01/13 02:56:08;;;;;;;2.88;1.50;;;2.20;99.90;;;;;;4954664;28;20061;-69
2023/01/13 02:58:38;;;;;;;14.07;2.78;;;2.20;99.90;;;;;;4947753;28;20082;-67
2023/01/13 03:01:05;;;;;;;2.53;1.85;;;2.20;99.90;;;;;;4951000;28;20047;-64
2023/01/13 03:03:32;;;;;;;2.90;1.58;;;2.20;99.90;;;;;;4950200;28;20150;-67
2023/01/13 03:06:24;;;;;;;7.47;2.20;;;2.20;99.90;;;;;;4948621;28;20161;-68
2023/01/13 03:09:34;;;;;;;5.20;2.20;;;2.20;99.90;;;;;;4948693;28;20051;-65
2023/01/13 03:12:16;;;;;;;4.88;2.08;;;2.20;99.90;;;;;;4949594;28;20534;-68
2023/01/13 03:15:03;;;;;;;2.78;2.28;;;2.20;99.90;;;;;;4950037;28;20110;-64
2023/01/13 03:17:45;;;;;;;3.22;2.28;;;2.20;99.90;;;;;;4952907;28;20155;-65
2023/01/13 03:20:16;;;;;;;3.40;2.28;;;2.20;99.90;;;;;;4951682;28;20682;-66
2023/01/13 03:23:10;;;;;;;3.75;2.08;;;2.20;99.90;;;;;;4949195;28;20141;-65
2023/01/13 03:25:47;;;;;;;3.50;1.77;;;2.20;99.90;;;;;;4951106;28;20504;-66
2023/01/13 03:28:31;;;;;;;2.65;2.10;;;2.20;99.90;;;;;;4950751;28;20055;-68
2023/01/13 03:31:06;;;;;;;4.28;2.10;;;2.20;99.90;;;;;;4959995;28;20055;-66
2023/01/13 03:33:39;;;;;;;4.05;2.50;;;2.30;99.90;;;;;;4952666;28;20061;-64
2023/01/13 03:36:09;;;;;;;3.63;2.10;;;2.30;99.90;;;;;;4953054;28;20057;-64
2023/01/13 03:38:41;;;;;;;4.90;3.05;;;2.30;99.90;;;;;;4958242;28;20050;-65
2023/01/13 03:41:14;;;;;;;2.92;2.20;;;2.30;99.90;;;;;;4950279;28;20078;-65
2023/01/13 03:47:02;;;;;;;3.72;2.25;;;2.40;99.90;;;;;;4951788;28;20153;-65
2023/01/13 03:49:58;;;;;;;5.88;3.15;;;2.50;99.90;;;;;;4951085;28;20043;-65
2023/01/13 03:52:33;;;;;;;3.45;2.30;;;2.50;99.90;;;;;;4955128;28;20046;-66
2023/01/13 03:55:09;;;;;;;4.30;2.40;;;2.50;99.90;;;;;;4955670;28;20077;-65
2023/01/13 03:57:41;;;;;;;4.05;2.58;;;2.60;99.90;;;;;;4957582;28;20434;-64
2023/01/13 04:00:11;;;;;;;7.63;2.92;;;2.60;99.90;;;;;;4955665;28;20468;-64
2023/01/13 04:02:46;;;;;;;7.50;3.17;;;2.60;99.90;;;;;;4955728;28;20082;-66
2023/01/13 04:05:14;;;;;;;4.07;3.35;;;2.60;99.90;;;;;;4961175;28;20144;-65
2023/01/13 04:08:16;;;;;;;7.50;3.30;;;2.60;99.90;;;;;;4960082;28;20491;-64
2023/01/13 04:10:55;;;;;;;6.55;3.97;;;2.60;99.90;;;;;;4933262;28;20454;-67
2023/01/13 04:13:26;;;;;;;5.10;3.80;;;2.60;99.90;;;;;;4957728;28;20421;-64
2023/01/13 04:15:53;;;;;;;5.88;3.80;;;2.60;99.90;;;;;;4956569;28;20051;-65
2023/01/13 04:18:29;;;;;;;5.70;4.47;;;2.60;99.90;;;;;;4957756;28;20481;-65
2023/01/13 04:20:58;;;;;;;5.15;3.63;;;2.60;99.90;;;;;;4954285;28;20077;-67
2023/01/13 04:23:26;;;;;;;6.78;5.30;;;2.70;99.90;;;;;;4955372;28;20402;-67
2023/01/13 04:25:54;;;;;;;6.13;3.75;;;2.70;99.90;;;;;;4958928;28;20059;-65
2023/01/13 04:28:21;;;;;;;6.38;4.85;;;2.70;99.90;;;;;;4954936;28;20083;-69
2023/01/13 04:30:48;;;;;;;6.88;4.93;;;2.80;99.90;;;;;;4960337;28;20051;-69
2023/01/13 04:33:16;;;;;;;9.60;5.97;;;2.80;99.90;;;;;;4957332;28;20050;-64
2023/01/13 04:35:44;;;;;;;12.25;5.75;;;2.80;99.90;;;;;;4960559;28;20166;-66
2023/01/13 04:38:14;;;;;;;8.52;5.10;;;2.80;99.90;;;;;;4971161;28;20483;-66
2023/01/13 04:40:41;;;;;;;9.68;5.05;;;2.90;99.90;;;;;;4959638;28;20452;-65
2023/01/13 04:43:08;;;;;;;7.50;5.68;;;2.90;99.90;;;;;;4960321;28;20149;-64
2023/01/13 04:45:35;;;;;;;8.00;4.72;;;2.90;99.90;;;;;;4953469;28;20086;-63
2023/01/13 04:48:02;;;;;;;8.15;5.28;;;2.90;99.90;;;;;;4957905;28;20547;-66
2023/01/13 04:50:29;;;;;;;6.22;5.00;;;3.00;99.90;;;;;;4956139;28;20134;-66
2023/01/13 04:52:56;;;;;;;6.47;4.50;;;3.00;99.90;;;;;;4956895;28;20450;-66
2023/01/13 04:55:24;;;;;;;9.15;5.20;;;3.00;99.90;;;;;;4952017;28;20057;-67
2023/01/13 04:57:51;;;;;;;6.90;4.75;;;3.10;99.90;;;;;;4952767;28;20054;-64
2023/01/13 05:00:20;;;;;;;7.60;4.80;;;3.00;99.90;;;;;;4946683;28;20043;-67
2023/01/13 05:02:51;;;;;;;6.77;4.63;;;3.10;99.90;;;;;;4953120;28;20051;-65
2023/01/13 05:05:18;;;;;;;10.55;4.90;;;3.10;99.90;;;;;;4954059;28;20044;-65
2023/01/13 05:07:45;;;;;;;8.43;5.38;;;3.10;99.90;;;;;;4959028;28;20492;-66
2023/01/13 05:10:12;;;;;;;9.80;5.00;;;3.10;99.90;;;;;;4968223;28;20082;-64
2023/01/13 05:18:10;;;;;;;7.10;4.75;;;3.10;99.90;;;;;;4951924;28;20386;-64
2023/01/13 05:20:37;;;;;;;7.68;4.03;;;3.20;99.90;;;;;;4957538;28;20071;-65
2023/01/13 05:25:50;;;;;;;7.22;4.60;;;3.30;99.90;;;;;;4955457;28;20050;-65
2023/01/13 05:28:17;;;;;;;11.00;5.68;;;3.30;99.90;;;;;;4956080;28;20077;-65
2023/01/13 05:30:47;;;;;;;8.23;5.40;;;3.30;99.90;;;;;;4956980;28;20094;-65
2023/01/13 05:33:19;;;;;;;8.18;5.43;;;3.40;99.90;;;;;;4957535;28;20076;-69
2023/01/13 05:35:48;;;;;;;7.28;4.93;;;3.40;99.90;;;;;;4960259;28;20050;-64
2023/01/13 05:38:15;;;;;;;9.68;5.20;;;3.40;99.90;;;;;;4954254;28;20642;-67
2023/01/13 05:43:29;;;;;;;8.13;4.82;;;3.50;99.90;;;;;;4954651;28;20145;-67
2023/01/13 05:46:06;;;;;;;8.32;5.40;;;3.50;99.90;;;;;;4945823;28;20134;-65
2023/01/13 05:48:41;;;;;;;6.60;4.95;;;3.60;99.90;;;;;;4955344;28;20058;-65
2023/01/13 05:51:10;;;;;;;8.73;5.57;;;3.60;99.90;;;;;;4953901;28;20074;-64
2023/01/13 05:53:39;;;;;;;10.70;5.43;;;3.60;99.90;;;;;;4954265;28;20171;-66
2023/01/13 05:56:07;;;;;;;12.63;5.72;;;3.70;99.90;;;;;;4952096;28;20665;-65
2023/01/13 05:58:35;;;;;;;7.90;6.00;;;3.70;99.90;;;;;;4953982;28;20756;-64
2023/01/13 06:01:05;;;;;;;9.90;5.65;;;3.70;99.90;;;;;;4949225;28;20734;-65
2023/01/13 06:03:32;;;;;;;10.77;5.72;;;3.80;99.90;;;;;;4957477;28;20400;-64
2023/01/13 06:06:00;;;;;;;11.07;7.00;;;3.80;99.90;;;;;;4951550;28;20061;-67
2023/01/13 06:08:28;;;;;;;11.95;6.32;;;3.80;99.90;;;;;;4956226;28;20059;-69
2023/01/13 06:10:56;;;;;;;11.80;6.57;;;3.90;99.90;;;;;;4959443;28;20133;-65
2023/01/13 06:13:24;;;;;;;11.05;7.05;;;3.90;99.90;;;;;;4954593;28;20051;-64
2023/01/13 06:15:54;;;;;;;11.13;7.18;;;4.00;99.90;;;;;;4950015;28;20065;-67
2023/01/13 06:18:21;;;;;;;11.50;6.90;;;4.00;99.90;;;;;;4953423;28;20834;-65
2023/01/13 06:20:48;;;;;;;12.63;7.72;;;4.10;99.90;;;;;;4952439;28;20047;-68
2023/01/13 06:23:15;;;;;;;17.48;7.65;;;4.10;99.90;;;;;;4946995;28;20058;-67
2023/01/13 06:26:06;;;;;;;13.57;8.02;;;4.10;99.90;;;;;;4948911;28;20065;-64
2023/01/13 06:28:34;;;;;;;12.80;7.75;;;4.10;99.90;;;;;;4940707;28;20134;-65
2023/01/13 06:31:04;;;;;;;11.52;7.55;;;4.20;99.90;;;;;;4947597;28;20078;-68
2023/01/13 06:33:37;;;;;;;15.15;9.40;;;4.30;99.90;;;;;;4960064;28;20043;-64
2023/01/13 06:36:10;;;;;;;12.07;6.80;;;4.30;99.90;;;;;;4946067;28;20150;-66
2023/01/13 06:38:41;;;;;;;12.00;7.57;;;4.40;99.90;;;;;;4949928;28;20154;-64
2023/01/13 06:41:08;;;;;;;15.43;7.57;;;4.40;99.90;;;;;;4948161;28;20049;-64
2023/01/13 06:43:36;;;;;;;13.77;7.75;;;4.50;99.90;;;;;;4950289;28;20047;-66
2023/01/13 06:46:03;;;;;;;13.82;7.80;;;4.50;99.90;;;;;;4944819;28;20043;-65
2023/01/13 06:48:33;;;;;;;12.80;7.35;;;4.60;99.90;;;;;;4949234;28;20130;-65
2023/01/13 06:51:02;;;;;;;16.27;7.65;;;4.70;99.90;;;;;;4949662;28;20050;-65
2023/01/13 06:53:29;;;;;;;12.93;7.20;;;4.70;99.90;;;;;;4951496;28;20073;-65
2023/01/13 06:55:56;;;;;;;13.30;6.93;;;4.80;99.90;;;;;;4946264;28;20502;-65
2023/01/13 06:58:23;;;;;;;8.38;6.10;;;4.90;99.90;;;;;;4950356;28;20409;-64
2023/01/13 07:00:50;;;;;;;10.77;6.28;;;5.00;99.90;;;;;;4949442;28;20479;-65
2023/01/13 07:03:18;;;;;;;18.92;7.95;;;5.00;99.90;;;;;;4948403;28;20050;-64
2023/01/13 07:05:52;;;;;;;8.85;7.10;;;5.10;99.90;;;;;;4946965;28;20110;-64
2023/01/13 07:08:19;;;;;;;11.45;5.25;;;5.10;99.90;;;;;;4949785;28;20086;-65
2023/01/13 07:10:46;;;;;;;10.23;5.30;;;5.20;99.90;;;;;;4947576;28;20074;-64
2023/01/13 07:16:01;;;;;;;12.45;7.32;;;5.40;99.90;;;;;;4943624;28;20512;-66
2023/01/13 07:18:30;;;;;;;9.10;5.97;;;5.40;99.90;;;;;;4947734;28;20069;-66
2023/01/13 07:21:03;;;;;;;8.07;6.05;;;5.40;99.90;;;;;;4947273;28;20290;-66
2023/01/13 07:23:33;;;;;;;10.80;6.78;;;5.50;99.90;;;;;;4949639;28;20605;-64
2023/01/13 07:26:00;;;;;;;10.75;6.32;;;5.50;99.90;;;;;;4947569;28;20122;-66
2023/01/13 07:28:28;;;;;;;11.25;8.07;;;5.60;99.90;;;;;;4952950;28;20046;-64
2023/01/13 07:30:56;;;;;;;8.43;6.85;;;5.60;99.90;;;;;;4953414;28;20203;-65
2023/01/13 07:33:23;;;;;;;9.00;7.65;;;5.70;99.90;;;;;;4952142;28;20146;-64
2023/01/13 07:36:01;;;;;;;12.07;7.32;;;5.70;99.90;;;;;;4949713;28;20692;-64
2023/01/13 07:38:29;;;;;;;11.07;7.53;;;5.80;99.90;;;;;;4953004;28;20409;-64
2023/01/13 07:40:56;;;;;;;13.13;8.70;;;5.80;99.90;;;;;;4951523;28;20096;-67
2023/01/13 07:43:31;;;;;;;12.07;7.78;;;5.80;99.90;;;;;;4953906;28;20142;-68
2023/01/13 07:46:00;;;;;;;9.55;7.80;;;5.80;99.90;;;;;;4950466;28;20074;-69
2023/01/13 07:48:29;;;;;;;10.40;8.02;;;5.80;99.90;;;;;;4953284;28;20056;-65
2023/01/13 07:51:07;;;;;;;10.45;7.47;;;5.70;99.90;;;;;;4952988;28;20086;-65
2023/01/13 07:53:34;;;;;;;9.32;7.20;;;5.80;99.90;;;;;;4956823;28;20112;-67
2023/01/13 07:56:03;;;;;;;7.93;6.10;;;5.90;99.90;;;;;;4948769;28;20547;-67
2023/01/13 07:58:31;;;;;;;8.32;6.18;;;5.90;99.90;;;;;;4953963;28;20103;-66
2023/01/13 08:00:58;;;;;;;4.63;3.67;;;6.00;99.90;;;;;;4949316;28;20047;-70
2023/01/13 08:03:26;;;;;;;5.78;4.18;;;6.00;99.90;;;;;;4950956;28;20078;-64
2023/01/13 08:05:53;;;;;;;4.03;3.63;;;6.10;99.90;;;;;;4951877;28;20066;-66
2023/01/13 08:08:20;;;;;;;4.70;4.22;;;6.10;99.90;;;;;;4951489;28;20074;-66
2023/01/13 08:10:46;;;;;;;5.28;3.55;;;6.10;99.90;;;;;;4952409;28;20066;-65
2023/01/13 08:13:16;;;;;;;3.65;3.35;;;6.10;99.90;;;;;;4950975;28;20416;-64
2023/01/13 08:15:48;;;;;;;5.20;4.03;;;6.20;99.90;;;;;;4951205;28;20494;-65
2023/01/13 08:18:19;;;;;;;6.65;4.60;;;6.30;99.90;;;;;;4947918;28;20039;-65
2023/01/13 08:20:51;;;;;;;5.25;4.05;;;6.40;99.90;;;;;;4950440;28;20050;-64
2023/01/13 08:23:19;;;;;;;6.45;4.72;;;6.50;99.90;;;;;;4953634;28;20050;-64
2023/01/13 08:25:47;;;;;;;9.00;5.13;;;6.50;99.90;;;;;;4957212;28;20053;-64
2023/01/13 08:28:15;;;;;;;9.55;6.13;;;6.50;99.90;;;;;;4952919;28;20055;-69
2023/01/13 08:30:42;;;;;;;11.50;6.50;;;6.60;99.90;;;;;;4955764;28;20126;-65
2023/01/13 08:33:10;;;;;;;9.60;4.78;;;6.60;99.90;;;;;;4952462;28;20051;-65
2023/01/13 08:35:39;;;;;;;11.73;5.65;;;6.60;99.90;;;;;;4958262;28;20073;-69
2023/01/13 08:38:07;;;;;;;8.98;5.18;;;6.60;99.90;;;;;;4949830;28;20083;-65
2023/01/13 08:40:34;;;;;;;6.57;4.60;;;6.60;99.90;;;;;;4956364;28;20038;-67
2023/01/13 08:43:01;;;;;;;9.43;5.28;;;6.60;99.90;;;;;;4957101;28;20161;-70
2023/01/13 08:45:28;;;;;;;10.55;6.32;;;6.60;99.90;;;;;;4953758;28;20506;-64
2023/01/13 08:47:55;;;;;;;8.73;5.82;;;6.60;99.90;;;;;;4952708;28;20055;-69
2023/01/13 08:50:22;;;;;;;12.65;6.85;;;6.60;99.90;;;;;;4955883;28;20082;-68
2023/01/13 08:52:49;;;;;;;12.10;6.25;;;6.60;99.90;;;;;;4954547;28;20138;-64
2023/01/13 08:55:16;;;;;;;12.07;6.15;;;6.60;99.90;;;;;;4948664;28;20043;-66
2023/01/13 08:57:43;;;;;;;10.63;6.85;;;6.60;99.90;;;;;;4955339;28;20050;-70
2023/01/13 09:00:11;;;;;;;12.93;6.97;;;6.60;99.90;;;;;;4954449;28;20055;-64
2023/01/13 09:02:38;;;;;;;9.27;5.93;;;6.60;99.90;;;;;;4956351;28;20063;-64
2023/01/13 09:05:07;;;;;;;12.38;6.05;;;6.60;99.90;;;;;;4956350;28;20050;-67
2023/01/13 09:07:36;;;;;;;14.85;7.75;;;6.60;99.90;;;;;;4958308;28;20076;-65
2023/01/13 09:10:05;;;;;;;19.30;8.57;;;6.60;99.90;;;;;;4955924;28;20047;-68
2023/01/13 09:15:18;;;;;;;10.23;7.63;;;6.60;99.90;;;;;;4954090;28;20063;-65
2023/01/13 09:17:46;;;;;;;11.88;7.47;;;6.60;99.90;;;;;;4949655;28;20083;-67
2023/01/13 09:20:13;;;;;;;11.48;7.90;;;6.60;99.90;;;;;;4957606;28;20121;-65
2023/01/13 09:22:40;;;;;;;15.90;8.43;;;6.60;99.90;;;;;;4952250;28;20085;-64
2023/01/13 09:25:08;;;;;;;13.48;8.32;;;6.60;99.90;;;;;;4951280;28;20497;-66
2023/01/13 09:27:35;;;;;;;10.15;6.30;;;6.60;99.90;;;;;;4954458;28;20962;-68
2023/01/13 09:30:02;;;;;;;11.32;7.43;;;6.60;99.90;;;;;;4944374;28;20158;-67
2023/01/13 09:32:29;;;;;;;14.80;8.38;;;6.60;99.90;;;;;;4957368;28;20051;-66
2023/01/13 09:34:59;;;;;;;12.07;8.57;;;6.60;99.90;;;;;;4952615;28;20047;-66
2023/01/13 09:37:37;;;;;;;16.15;7.75;;;6.60;99.90;;;;;;4949466;28;20055;-68
2023/01/13 09:40:12;;;;;;;16.25;6.72;;;6.60;99.90;;;;;;4947786;28;20078;-67
2023/01/13 09:45:41;;;;;;;11.40;7.53;;;6.70;99.90;;;;;;4950259;28;20169;-65
2023/01/13 09:48:11;;;;;;;10.95;6.80;;;6.70;99.90;;;;;;4950862;28;20080;-69
2023/01/13 09:50:59;;;;;;;10.88;6.22;;;6.70;99.90;;;;;;4953513;28;20061;-65
2023/01/13 09:53:31;;;;;;;12.80;6.65;;;6.80;99.90;;;;;;4956231;28;20053;-67
2023/01/13 09:55:59;;;;;;;11.45;7.00;;;6.80;99.90;;;;;;4951264;28;20055;-65
2023/01/13 09:58:26;;;;;;;13.05;5.93;;;6.80;99.90;;;;;;4952918;28;20433;-64
2023/01/13 10:01:00;;;;;;;13.95;5.93;;;6.90;99.90;;;;;;4953735;28;20055;-66
2023/01/13 10:03:29;;;;;;;12.48;6.78;;;6.90;99.90;;;;;;4952909;28;20458;-65
2023/01/13 10:05:59;;;;;;;9.53;6.47;;;6.90;99.90;;;;;;4947371;28;20077;-65
2023/01/13 10:08:31;;;;;;;13.05;6.72;;;6.90;99.90;;;;;;4951618;28;20057;-65
2023/01/13 10:13:13;;;;;;;10.52;6.05;;;6.90;99.90;;;;;;4948206;28;20150;-68
2023/01/13 10:13:52;;;;;;;17.30;5.38;;;7.00;99.90;;;;;;4949249;28;20170;-64
2023/01/13 10:16:47;;;;;;;10.07;4.80;;;7.00;99.90;;;;;;4945397;28;20434;-65
2023/01/13 10:19:39;;;;;;;8.68;4.85;;;7.00;99.90;;;;;;4951595;28;20075;-65
2023/01/13 10:22:31;;;;;;;11.98;4.50;;;7.00;99.90;;;;;;4946324;28;20105;-65
2023/01/13 10:25:22;;;;;;;9.43;4.50;;;6.90;99.90;;;;;;4945924;28;20047;-70
2023/01/13 10:27:51;;;;;;;13.20;3.80;;;6.90;99.90;;;;;;4947701;28;20129;-65
2023/01/13 10:30:35;;;;;;;10.60;4.82;;;6.90;99.90;;;;;;4946714;28;20075;-65
2023/01/13 10:33:16;;;;;;;15.68;5.32;;;6.90;99.90;;;;;;4948264;28;20077;-65
2023/01/13 10:35:57;;;;;;;12.35;4.60;;;7.00;99.90;;;;;;4945061;28;20138;-64
2023/01/13 10:38:38;;;;;;;14.45;3.88;;;7.00;99.90;;;;;;4949017;28;20886;-66
2023/01/13 10:41:14;;;;;;;12.10;4.47;;;7.00;99.90;;;;;;4945019;28;20122;-65
2023/01/13 10:44:00;;;;;;;21.23;4.75;;;7.00;99.90;;;;;;4951084;28;20170;-66
2023/01/13 10:46:28;;;;;;;7.78;2.42;;;7.00;99.90;;;;;;4948844;28;20145;-64
2023/01/13 10:48:58;;;;;;;11.13;3.88;;;7.00;99.90;;;;;;4943927;28;20502;-67
2023/01/13 10:51:27;;;;;;;10.05;3.38;;;7.00;99.90;;;;;;4946569;28;20043;-65
2023/01/13 10:53:58;;;;;;;10.05;3.70;;;6.90;99.90;;;;;;4945324;28;20509;-66
2023/01/13 10:56:28;;;;;;;7.15;2.80;;;6.90;99.90;;;;;;4946834;28;20505;-65
2023/01/13 10:59:18;;;;;;;13.48;3.17;;;6.80;99.90;;;;;;4959175;28;20530;-65
2023/01/13 11:02:23;;;;;;;17.55;5.05;;;6.80;99.90;;;;;;4950855;28;20073;-70
2023/01/13 11:04:52;;;;;;;11.27;3.35;;;6.70;99.90;;;;;;4952815;28;20039;-65
2023/01/13 11:07:27;;;;;;;20.05;4.03;;;6.80;99.90;;;;;;4951478;28;20083;-66
2023/01/13 11:10:26;;;;;;;12.57;4.00;;;6.70;99.90;;;;;;4954056;28;20118;-65
2023/01/13 11:13:17;;;;;;;10.98;3.90;;;6.70;99.90;;;;;;4954507;28;20495;-63
2023/01/13 11:16:04;;;;;;;8.55;2.60;;;6.70;99.90;;;;;;4953489;28;20186;-63
2023/01/13 11:19:10;;;;;;;16.25;3.75;;;6.70;99.90;;;;;;4952371;28;20074;-67
2023/01/13 11:21:40;;;;;;;10.68;4.88;;;6.70;99.90;;;;;;4951058;28;20529;-67
2023/01/13 11:24:38;;;;;;;15.07;3.65;;;6.70;99.90;;;;;;4949322;28;20057;-68
2023/01/13 11:27:10;;;;;;;12.50;3.20;;;6.70;99.90;;;;;;4956325;28;20630;-66
2023/01/13 11:29:49;;;;;;;15.50;3.42;;;6.70;99.90;;;;;;4950991;28;20626;-64
2023/01/13 11:32:19;;;;;;;17.70;4.45;;;6.70;99.90;;;;;;4957360;28;20477;-71
2023/01/13 11:34:54;;;;;;;10.27;3.63;;;6.60;99.90;;;;;;4956923;28;20150;-66
2023/01/13 11:37:24;;;;;;;19.10;3.75;;;6.70;99.90;;;;;;4958729;28;20137;-65
2023/01/13 11:40:12;;;;;;;12.75;4.25;;;6.60;99.90;;;;;;4956721;28;20073;-64
2023/01/13 11:43:02;;;;;;;15.63;4.07;;;6.60;99.90;;;;;;4956746;28;20192;-65
2023/01/13 11:45:28;;;;;;;12.43;3.90;;;6.60;99.90;;;;;;4954306;28;20511;-66
2023/01/13 11:47:59;;;;;;;14.30;5.40;;;6.60;99.90;;;;;;4960561;28;20050;-67
2023/01/13 11:50:46;;;;;;;;;;;6.60;99.90;;;;;;4960153;28;20079;-65
2023/01/13 11:53:51;;;;;;;11.43;4.25;;;6.50;99.90;;;;;;4959667;28;20025;-64
2023/01/13 11:56:36;;;;;;;16.85;3.95;;;6.50;99.90;;;;;;4955735;28;20457;-65
2023/01/13 11:59:33;;;;;;;16.90;4.32;;;6.50;99.90;;;;;;4962411;28;20050;-67
2023/01/13 12:02:06;;;;;;;13.15;4.35;;;6.50;99.90;;;;;;4953608;28;21066;-69
2023/01/13 12:04:48;;;;;;;21.23;4.90;;;6.50;99.90;;;;;;4960396;28;20515;-65
2023/01/13 12:07:26;;;;;;;14.77;5.30;;;6.50;99.90;;;;;;4962767;28;20050;-64
2023/01/13 12:09:55;;;;;;;20.77;4.45;;;6.50;99.90;;;;;;4974851;28;20134;-64
2023/01/13 12:12:42;;;;;;;17.35;5.60;;;6.50;99.90;;;;;;4950439;28;20157;-65
2023/01/13 12:15:21;;;;;;;14.50;3.75;;;6.40;99.90;;;;;;4953024;28;20108;-68
2023/01/13 12:17:53;;;;;;;15.02;4.68;;;6.40;99.90;;;;;;4947190;28;20055;-65
2023/01/13 12:20:40;;;;;;;18.20;4.72;;;6.50;99.90;;;;;;4960017;28;20544;-67
2023/01/13 12:23:24;;;;;;;21.27;5.00;;;6.40;99.90;;;;;;4955011;28;20054;-66
2023/01/13 12:26:04;;;;;;;16.45;5.05;;;6.40;99.90;;;;;;4958327;28;20045;-68
2023/01/13 12:28:55;;;;;;;18.63;4.55;;;6.40;99.90;;;;;;4957523;28;20197;-65
2023/01/13 12:31:23;;;;;;;23.30;4.22;;;6.30;99.90;;;;;;4951788;28;20055;-66
2023/01/13 12:34:07;;;;;;;18.48;4.88;;;6.40;99.90;;;;;;4947688;28;20051;-64
2023/01/13 12:36:58;;;;;;;18.58;4.15;;;6.30;99.90;;;;;;4951349;28;20051;-64
2023/01/13 12:39:36;;;;;;;16.13;4.60;;;6.40;99.90;;;;;;4950373;28;20053;-65
2023/01/13 12:45:10;;;;;;;18.33;5.85;;;6.30;99.90;;;;;;4957024;28;20418;-64
2023/01/13 12:47:42;;;;;;;20.48;5.15;;;6.30;99.90;;;;;;4956235;28;20055;-67
2023/01/13 12:50:21;;;;;;;18.05;4.20;;;6.30;99.90;;;;;;4955525;28;20047;-64
2023/01/13 12:52:59;;;;;;;20.52;5.30;;;6.20;99.90;;;;;;4957686;28;20065;-69
2023/01/13 12:55:29;;;;;;;21.25;4.95;;;6.20;99.90;;;;;;4957037;28;20146;-65
2023/01/13 12:58:05;;;;;;;22.45;5.05;;;6.20;99.90;;;;;;4954030;28;20137;-70
2023/01/13 13:00:41;;;;;;;19.75;5.35;;;6.20;99.90;;;;;;4953480;28;20118;-70
2023/01/13 13:03:11;;;;;;;18.73;5.70;;;6.10;99.90;;;;;;4954573;28;20050;-65
2023/01/13 13:05:53;;;;;;;31.15;5.95;;;6.10;99.90;;;;;;4952659;28;20051;-66
2023/01/13 13:08:58;;;;;;;28.83;4.28;;;6.10;99.90;;;;;;4953349;28;20074;-68
2023/01/13 13:14:36;;;;;;;24.40;6.35;;;6.00;99.90;;;;;;4953927;28;20083;-67
2023/01/13 13:17:04;;;;;;;24.20;5.30;;;6.00;99.90;;;;;;4950669;28;20529;-68
2023/01/13 13:19:31;;;;;;;22.75;5.70;;;6.00;99.90;;;;;;4954807;28;20604;-66
2023/01/13 13:22:13;;;;;;;26.17;5.05;;;5.90;99.90;;;;;;4964718;28;20523;-65
2023/01/13 13:25:01;;;;;;;19.92;5.88;;;5.90;99.90;;;;;;4955273;28;20051;-67
2023/01/13 13:27:37;;;;;;;25.17;7.50;;;5.90;99.90;;;;;;4950512;28;20058;-66
2023/01/13 13:30:29;;;;;;;24.25;5.10;;;5.80;99.90;;;;;;4952294;28;20158;-68
2023/01/13 13:33:34;;;;;;;23.02;5.00;;;5.80;99.90;;;;;;4955642;28;20106;-64
2023/01/13 13:36:15;;;;;;;40.30;6.25;;;5.80;99.90;;;;;;4953252;28;20053;-66
2023/01/13 13:47:40;;;;;;;17.17;6.20;;;5.70;99.90;;;;;;4948900;28;20682;-66
2023/01/13 13:50:19;;;;;;;28.95;5.13;;;5.60;99.90;;;;;;4952967;28;20055;-67
2023/01/13 13:53:04;;;;;;;24.60;5.95;;;5.60;99.90;;;;;;4959966;28;20051;-64
2023/01/13 13:55:32;;;;;;;22.58;5.47;;;5.60;99.90;;;;;;4956466;28;20047;-64
2023/01/13 13:58:00;;;;;;;24.33;6.38;;;5.60;99.90;;;;;;4958404;28;20058;-67
2023/01/13 14:00:33;;;;;;;27.38;4.80;;;5.50;99.90;;;;;;4949621;28;20054;-70
2023/01/13 14:03:06;;;;;;;29.95;5.75;;;5.50;99.90;;;;;;4947405;28;20073;-65
2023/01/13 14:05:35;;;;;;;29.30;7.82;;;5.50;99.90;;;;;;4954082;28;20144;-65
2023/01/13 14:08:13;;;;;;;31.52;6.47;;;5.50;99.90;;;;;;4952512;28;20050;-68
2023/01/13 14:10:42;;;;;;;33.08;6.75;;;5.40;99.90;;;;;;4952573;28;20055;-65
2023/01/13 14:13:13;;;;;;;37.97;10.10;;;5.40;99.90;;;;;;4951831;28;20134;-68